Time;durP1;ratioP1;P1;durP2;ratioP2;P2;SDS_P1;SDS_P2;PMS_P1;PMS_P2;Temp;Humidity;BMP_temperature;BMP_pressure;BME280_temperature;BME280_humidity;BME280_pressure;Samples;Min_cycle;Max_cycle;Signal;HPM_P1;HPM_P2
2023/10/14 00:01:04;;;;;;;0.60;0.60;;;;;;;13.95;74.33;97412.13;5065622;28;20431;-63
2023/10/14 00:03:35;;;;;;;0.60;0.60;;;;;;;13.93;73.83;97408.09;5065552;28;20045;-64
2023/10/14 00:06:06;;;;;;;0.60;0.60;;;;;;;13.94;73.89;97409.72;5065732;28;20108;-63
2023/10/14 00:08:34;;;;;;;0.50;0.50;;;;;;;13.53;73.98;97359.56;5065446;28;20696;-62
2023/10/14 00:11:04;;;;;;;0.60;0.60;;;;;;;13.76;74.49;97398.41;5065235;28;20438;-63
2023/10/14 00:13:32;;;;;;;0.60;0.60;;;;;;;13.66;75.14;97394.31;5065556;28;20053;-62
2023/10/14 00:16:01;;;;;;;0.60;0.60;;;;;;;13.76;74.42;97392.81;5065332;28;20053;-64
2023/10/14 00:18:28;;;;;;;0.60;0.60;;;;;;;13.82;74.34;97387.69;5063654;28;20137;-63
2023/10/14 00:20:55;;;;;;;0.60;0.60;;;;;;;13.80;74.76;97392.88;5065246;28;20086;-64
2023/10/14 00:23:26;;;;;;;0.50;0.50;;;;;;;13.13;78.07;97387.34;5065453;28;20055;-63
2023/10/14 00:25:54;;;;;;;0.60;0.60;;;;;;;13.26;77.70;97385.91;5077212;28;20059;-65
2023/10/14 00:28:21;;;;;;;0.60;0.60;;;;;;;13.13;77.48;97345.63;5084261;28;20536;-63
2023/10/14 00:30:48;;;;;;;0.70;0.70;;;;;;;13.30;77.30;97363.69;5084021;28;20047;-62
2023/10/14 00:33:14;;;;;;;0.60;0.60;;;;;;;13.46;77.05;97381.78;5085977;28;20056;-63
2023/10/14 00:35:43;;;;;;;0.60;0.60;;;;;;;13.30;77.34;97381.19;5084849;28;20055;-63
2023/10/14 00:38:13;;;;;;;0.60;0.60;;;;;;;13.41;77.28;97378.53;5085540;28;20553;-64
2023/10/14 00:40:44;;;;;;;0.60;0.60;;;;;;;13.45;76.61;97377.38;5083784;28;20058;-62
2023/10/14 00:43:11;;;;;;;0.60;0.60;;;;;;;13.34;77.22;97375.69;5085163;28;20056;-62
2023/10/14 00:45:43;;;;;;;0.60;0.60;;;;;;;13.09;77.41;97324.50;5084239;28;20073;-64
2023/10/14 00:48:13;;;;;;;0.60;0.60;;;;;;;13.38;77.12;97360.63;5068172;28;20050;-62
2023/10/14 00:50:41;;;;;;;0.60;0.60;;;;;;;13.13;77.46;97317.00;5083195;28;20058;-64
2023/10/14 00:53:08;;;;;;;0.63;0.63;;;;;;;13.31;77.89;97356.94;5083567;28;20048;-63
2023/10/14 00:58:21;;;;;;;0.60;0.60;;;;;;;13.42;77.30;97347.53;5085295;28;20048;-65
2023/10/14 01:00:57;;;;;;;0.60;0.60;;;;;;;13.36;76.89;97346.28;5084867;28;20063;-63
2023/10/14 01:03:31;;;;;;;0.60;0.60;;;;;;;13.25;77.12;97342.56;5083719;28;20052;-63
2023/10/14 01:08:49;;;;;;;0.60;0.60;;;;;;;13.09;77.44;97336.41;5085064;28;20044;-62
2023/10/14 01:11:18;;;;;;;0.60;0.60;;;;;;;13.17;76.30;97340.88;5084862;28;20074;-63
2023/10/14 01:13:45;;;;;;;0.60;0.60;;;;;;;12.81;76.58;97296.31;5085043;28;20044;-63
2023/10/14 01:16:12;;;;;;;0.60;0.60;;;;;;;13.05;77.45;97327.25;5084705;28;20052;-63
2023/10/14 01:18:39;;;;;;;0.60;0.60;;;;;;;12.98;77.53;97323.53;5084380;28;20542;-63
2023/10/14 01:21:07;;;;;;;0.50;0.50;;;;;;;12.97;78.04;97328.31;5083117;28;20486;-63
2023/10/14 01:23:37;;;;;;;0.60;0.60;;;;;;;12.89;78.58;97315.50;5084835;28;20170;-64
2023/10/14 01:26:05;;;;;;;0.60;0.60;;;;;;;12.87;79.16;97323.41;5084305;28;20144;-63
2023/10/14 01:28:32;;;;;;;0.60;0.60;;;;;;;13.05;79.29;97316.13;5083200;28;20052;-64
2023/10/14 01:31:16;;;;;;;0.50;0.50;;;;;;;12.84;79.70;97318.59;5082173;28;20054;-64
2023/10/14 01:33:44;;;;;;;0.60;0.60;;;;;;;12.96;79.66;97321.13;5082508;28;20059;-63
2023/10/14 01:36:11;;;;;;;0.60;0.60;;;;;;;12.61;79.20;97245.66;5084509;28;20052;-63
2023/10/14 01:38:39;;;;;;;0.60;0.60;;;;;;;12.84;79.32;97271.34;5082762;28;20158;-63
2023/10/14 01:41:05;;;;;;;0.50;0.50;;;;;;;12.53;79.39;97235.63;5084202;28;20580;-63
2023/10/14 01:43:32;;;;;;;0.50;0.50;;;;;;;13.00;79.98;97316.47;5084090;28;20052;-63
2023/10/14 01:46:00;;;;;;;0.60;0.60;;;;;;;13.03;79.93;97315.69;5083521;28;20052;-63
2023/10/14 01:48:31;;;;;;;0.55;0.55;;;;;;;12.42;79.60;97234.69;5084242;28;20048;-63
2023/10/14 01:50:58;;;;;;;0.65;0.65;;;;;;;13.00;78.82;97327.59;5083728;28;20456;-63
2023/10/14 01:53:31;;;;;;;0.60;0.60;;;;;;;13.05;78.65;97318.91;5084511;28;20135;-63
2023/10/14 01:56:01;;;;;;;0.60;0.60;;;;;;;12.72;78.01;97271.59;5084090;28;20150;-63
2023/10/14 01:58:36;;;;;;;0.60;0.60;;;;;;;13.07;78.38;97322.09;5084170;28;20063;-63
2023/10/14 02:03:51;;;;;;;0.68;0.68;;;;;;;12.42;77.86;97231.94;5084142;28;20052;-63
2023/10/14 02:06:26;;;;;;;0.50;0.50;;;;;;;13.10;77.56;97326.88;5084122;28;20105;-63
2023/10/14 02:08:57;;;;;;;0.55;0.55;;;;;;;12.88;78.04;97302.75;5082812;28;20525;-63
2023/10/14 02:11:24;;;;;;;0.60;0.60;;;;;;;12.94;78.44;97323.50;5083931;28;20491;-63
2023/10/14 02:13:52;;;;;;;0.60;0.60;;;;;;;12.50;78.85;97255.84;5083644;28;20048;-62
2023/10/14 02:16:24;;;;;;;0.60;0.60;;;;;;;12.86;79.06;97321.81;5082021;28;20110;-61
2023/10/14 02:19:09;;;;;;;0.60;0.60;;;;;;;12.78;79.47;97325.69;5082670;28;20134;-62
2023/10/14 02:21:42;;;;;;;0.50;0.50;;;;;;;12.45;79.08;97277.59;5083494;28;20568;-62
2023/10/14 02:24:10;;;;;;;0.60;0.60;;;;;;;12.74;78.77;97329.59;5083804;28;20105;-63
2023/10/14 02:26:38;;;;;;;0.60;0.60;;;;;;;12.64;79.10;97319.94;5081973;28;20056;-63
2023/10/14 02:29:10;;;;;;;0.50;0.50;;;;;;;12.59;79.97;97309.16;5083648;28;20048;-62
2023/10/14 02:31:37;;;;;;;0.55;0.55;;;;;;;12.29;80.16;97263.88;5083740;28;20055;-64
2023/10/14 02:34:08;;;;;;;0.60;0.60;;;;;;;12.47;80.33;97303.03;5082075;28;20052;-62
2023/10/14 02:36:36;;;;;;;0.60;0.60;;;;;;;12.35;80.59;97270.72;5083704;28;20075;-62
2023/10/14 02:39:14;;;;;;;0.60;0.60;;;;;;;12.58;79.73;97299.22;5083427;28;20434;-62
2023/10/14 02:41:44;;;;;;;0.60;0.60;;;;;;;12.53;80.23;97302.31;5083744;28;20117;-62
2023/10/14 02:46:46;;;;;;;0.60;0.60;;;;;;;12.24;80.45;97255.88;5083141;28;20151;-62
2023/10/14 02:49:14;;;;;;;0.50;0.50;;;;;;;12.48;80.45;97313.75;5082211;28;20494;-63
2023/10/14 02:51:43;;;;;;;0.50;0.50;;;;;;;12.12;80.59;97247.78;5083639;28;20048;-63
2023/10/14 02:54:15;;;;;;;0.60;0.60;;;;;;;12.33;80.89;97295.28;5083568;28;20045;-64
2023/10/14 02:59:19;;;;;;;0.50;0.50;;;;;;;12.43;81.54;97291.84;5083479;28;20055;-62
2023/10/14 03:02:48;;;;;;;0.60;0.60;;;;;;;12.41;81.47;97288.66;5082133;28;20071;-62
2023/10/14 03:04:43;;;;;;;0.60;0.60;;;;;;;12.26;81.75;97275.75;5073070;28;20070;-63
2023/10/14 03:07:10;;;;;;;0.50;0.50;;;;;;;12.31;81.66;97300.44;5083845;28;20526;-62
2023/10/14 03:09:36;;;;;;;0.50;0.50;;;;;;;12.34;81.44;97294.13;5087159;28;20074;-62
2023/10/14 03:12:05;;;;;;;0.60;0.60;;;;;;;12.31;81.60;97300.44;5086844;28;20052;-62
2023/10/14 03:14:33;;;;;;;0.60;0.60;;;;;;;11.94;81.37;97244.75;5085595;28;20048;-62
2023/10/14 03:16:59;;;;;;;0.60;0.60;;;;;;;12.31;81.47;97289.31;5084976;28;20445;-62
2023/10/14 03:19:26;;;;;;;0.50;0.50;;;;;;;12.44;81.20;97299.00;5086846;28;20074;-64
2023/10/14 03:21:58;;;;;;;0.50;0.50;;;;;;;12.44;81.17;97301.00;5086790;28;20058;-62
2023/10/14 03:24:27;;;;;;;0.60;0.60;;;;;;;12.34;81.60;97301.66;5085496;28;20056;-62
2023/10/14 03:26:58;;;;;;;0.60;0.60;;;;;;;12.29;81.68;97301.97;5086584;28;20040;-64
2023/10/14 03:29:25;;;;;;;0.60;0.60;;;;;;;12.29;81.55;97302.78;5086968;28;20250;-62
2023/10/14 03:31:52;;;;;;;0.60;0.60;;;;;;;12.30;81.54;97303.59;5086599;28;20406;-62
2023/10/14 03:34:21;;;;;;;0.60;0.60;;;;;;;12.30;81.12;97293.25;5084903;28;20565;-63
2023/10/14 03:36:50;;;;;;;0.50;0.50;;;;;;;12.40;81.06;97298.16;5084919;28;20050;-62
2023/10/14 03:39:37;;;;;;;0.55;0.55;;;;;;;12.11;81.15;97257.28;5086206;28;20447;-61
2023/10/14 03:42:11;;;;;;;0.52;0.52;;;;;;;12.00;81.06;97300.75;5084744;28;20552;-62
2023/10/14 03:44:41;;;;;;;0.60;0.60;;;;;;;12.37;80.43;97298.94;5084658;28;20051;-62
2023/10/14 03:47:16;;;;;;;0.60;0.60;;;;;;;12.32;79.95;97290.91;5068525;28;20060;-62
2023/10/14 03:49:43;;;;;;;0.50;0.50;;;;;;;11.96;80.62;97261.03;5065588;28;20055;-63
2023/10/14 03:52:12;;;;;;;0.50;0.50;;;;;;;12.24;80.44;97294.75;5065875;28;20063;-64
2023/10/14 03:54:43;;;;;;;0.60;0.60;;;;;;;12.29;80.23;97300.00;5064216;28;20044;-64
2023/10/14 03:57:17;;;;;;;0.50;0.50;;;;;;;11.81;80.21;97234.22;5065796;28;20404;-62
2023/10/14 03:59:48;;;;;;;0.60;0.60;;;;;;;12.18;80.40;97287.94;5064492;28;20048;-62
2023/10/14 04:02:19;;;;;;;0.55;0.55;;;;;;;11.90;81.12;97268.88;5064348;28;20131;-62
2023/10/14 04:04:46;;;;;;;0.50;0.50;;;;;;;11.69;80.89;97228.88;5065452;28;20067;-63
2023/10/14 04:07:13;;;;;;;0.50;0.50;;;;;;;12.04;81.50;97291.28;5064181;28;20132;-63
2023/10/14 04:09:44;;;;;;;0.50;0.50;;;;;;;12.03;81.05;97283.31;5064582;28;20067;-63
2023/10/14 04:17:40;;;;;;;0.50;0.50;;;;;;;12.05;82.08;97286.53;5065598;28;20053;-62
2023/10/14 04:25:19;;;;;;;0.57;0.57;;;;;;;11.95;81.74;97298.28;5065882;28;20071;-65
2023/10/14 04:30:25;;;;;;;0.50;0.50;;;;;;;11.78;78.31;97298.78;5084928;28;20620;-63
2023/10/14 04:35:25;;;;;;;0.50;0.50;;;;;;;11.33;79.20;97309.88;5085029;28;20087;-63
2023/10/14 04:37:54;;;;;;;0.50;0.50;;;;;;;10.85;78.62;97246.78;5085564;28;20399;-63
2023/10/14 04:45:55;;;;;;;0.50;0.50;;;;;;;11.09;82.54;97310.22;5085276;28;20130;-63
2023/10/14 04:48:35;;;;;;;0.50;0.50;;;;;;;11.15;82.57;97331.72;5085122;28;20136;-63
2023/10/14 04:51:07;;;;;;;0.50;0.50;;;;;;;10.78;83.77;97260.53;5083121;28;20058;-63
2023/10/14 04:53:35;;;;;;;0.50;0.50;;;;;;;11.13;84.29;97305.56;5083705;28;20551;-62
2023/10/14 04:56:08;;;;;;;0.50;0.50;;;;;;;11.08;85.33;97297.53;5084638;28;20105;-62
2023/10/14 04:58:40;;;;;;;;;;;;;;;11.25;84.91;97302.59;5085180;28;20499;-63
2023/10/14 05:01:17;;;;;;;0.50;0.50;;;;;;;11.15;84.82;97286.56;5084644;28;19928;-62
2023/10/14 05:03:46;;;;;;;0.50;0.50;;;;;;;11.41;84.30;97311.63;5084824;28;20127;-63
2023/10/14 05:08:44;;;;;;;0.50;0.50;;;;;;;10.31;84.21;97208.94;5084632;28;20441;-62
2023/10/14 05:11:13;;;;;;;0.50;0.50;;;;;;;11.27;82.32;97322.47;5084412;28;20146;-62
2023/10/14 05:13:44;;;;;;;0.50;0.50;;;;;;;11.27;81.90;97295.50;5084358;28;20050;-63
2023/10/14 05:16:15;;;;;;;0.50;0.50;;;;;;;11.57;81.44;97320.63;5082935;28;20047;-62
2023/10/14 05:18:58;;;;;;;0.50;0.50;;;;;;;11.64;81.21;97318.00;5084118;28;20532;-62
2023/10/14 05:21:43;;;;;;;0.60;0.60;;;;;;;11.85;81.42;97304.47;5083125;28;20052;-61
2023/10/14 05:24:11;;;;;;;0.60;0.60;;;;;;;11.99;80.88;97318.59;5083906;28;20051;-63
2023/10/14 05:26:58;;;;;;;0.50;0.50;;;;;;;12.20;80.74;97322.47;5083728;28;20058;-63
2023/10/14 05:29:26;;;;;;;0.50;0.50;;;;;;;12.38;80.20;97299.75;5081860;28;20052;-62
2023/10/14 05:31:53;;;;;;;0.60;0.60;;;;;;;12.68;80.00;97319.97;5083171;28;20505;-62
2023/10/14 05:34:29;;;;;;;0.52;0.52;;;;;;;12.86;78.87;97327.38;5083468;28;20064;-63
2023/10/14 05:36:56;;;;;;;0.60;0.60;;;;;;;13.12;77.78;97318.97;5081874;28;20044;-64
2023/10/14 05:39:23;;;;;;;0.60;0.60;;;;;;;13.25;77.31;97311.97;5083735;28;20067;-66
2023/10/14 05:41:58;;;;;;;0.60;0.60;;;;;;;13.21;77.15;97283.31;5084050;28;20564;-64
2023/10/14 05:44:28;;;;;;;0.60;0.60;;;;;;;13.14;75.62;97266.56;5082700;28;20591;-64
2023/10/14 05:46:55;;;;;;;0.60;0.60;;;;;;;13.74;75.58;97316.44;5083721;28;20052;-64
2023/10/14 05:49:24;;;;;;;0.60;0.60;;;;;;;13.76;74.98;97297.34;5084050;28;20051;-65
2023/10/14 05:51:52;;;;;;;0.55;0.55;;;;;;;14.05;73.87;97321.47;5083804;28;20048;-65
2023/10/14 05:54:24;;;;;;;0.60;0.60;;;;;;;13.80;72.98;97264.78;5084361;28;20126;-65
2023/10/14 05:56:51;;;;;;;0.60;0.60;;;;;;;14.18;72.28;97320.00;5083823;28;20063;-65
2023/10/14 05:59:19;;;;;;;0.60;0.60;;;;;;;14.01;73.62;97326.19;5083531;28;20056;-64
2023/10/14 06:01:46;;;;;;;0.60;0.60;;;;;;;14.03;74.03;97323.84;5084150;28;20078;-64
2023/10/14 06:04:15;;;;;;;0.60;0.60;;;;;;;13.16;73.22;97152.13;5073319;28;20051;-62
2023/10/14 06:06:42;;;;;;;0.63;0.63;;;;;;;14.35;73.04;97324.91;5083107;28;20056;-61
2023/10/14 06:09:09;;;;;;;0.70;0.70;;;;;;;14.60;72.45;97326.66;5081976;28;20507;-62
2023/10/14 06:11:37;;;;;;;0.60;0.60;;;;;;;14.70;70.87;97297.25;5073805;28;20522;-66
2023/10/14 06:14:05;;;;;;;0.60;0.60;;;;;;;13.12;70.04;97060.31;5077132;28;20124;-62
2023/10/14 06:16:31;;;;;;;0.70;0.70;;;;;;;14.95;70.45;97320.47;5064727;28;20514;-60
2023/10/14 06:18:59;;;;;;;0.70;0.70;;;;;;;15.27;69.77;97321.38;5070869;28;20048;-63
2023/10/14 06:21:33;;;;;;;0.70;0.70;;;;;;;15.22;68.47;97293.06;5064902;28;20471;-72
2023/10/14 06:24:00;;;;;;;;;;;;;;;15.66;67.66;97322.31;5076854;28;20143;-66
2023/10/14 06:26:27;;;;;;;0.60;0.60;;;;;;;15.47;68.21;97303.13;5083497;28;19932;-60
2023/10/14 06:28:56;;;;;;;0.70;0.70;;;;;;;15.88;68.10;97318.34;5074206;28;20048;-62
2023/10/14 06:31:23;;;;;;;0.70;0.70;;;;;;;15.95;67.24;97275.66;5081492;28;20059;-61
2023/10/14 06:33:54;;;;;;;0.70;0.70;;;;;;;15.78;65.02;97245.69;5074173;28;20433;-66
2023/10/14 06:36:24;;;;;;;0.70;0.70;;;;;;;16.84;64.17;97313.44;5066278;28;20052;-63
2023/10/14 06:38:51;;;;;;;0.70;0.70;;;;;;;16.61;63.86;97244.78;5059026;28;20699;-64
2023/10/14 06:41:18;;;;;;;0.77;0.77;;;;;;;15.69;63.38;97075.75;5073452;28;20525;-67
2023/10/14 06:43:55;;;;;;;0.82;0.82;;;;;;;16.75;61.96;97231.94;4994401;28;20056;-67
2023/10/14 06:46:22;;;;;;;0.80;0.80;;;;;;;17.52;61.41;97315.56;5072193;28;20072;-61
2023/10/14 06:48:55;;;;;;;0.80;0.80;;;;;;;17.71;60.15;97301.03;5075698;28;20070;-64
2023/10/14 06:51:22;;;;;;;0.80;0.80;;;;;;;18.03;59.32;97307.22;5082141;28;20048;-62
2023/10/14 06:53:51;;;;;;;0.90;0.90;;;;;;;17.62;58.43;97233.47;5076438;28;20334;-63
2023/10/14 06:56:20;;;;;;;0.80;0.80;;;;;;;18.31;58.79;97298.56;5073311;28;20055;-59
2023/10/14 06:58:47;;;;;;;0.80;0.80;;;;;;;18.60;57.57;97294.31;5077399;28;20138;-57
2023/10/14 07:01:16;;;;;;;0.80;0.80;;;;;;;18.81;56.50;97294.06;5084234;28;20060;-67
2023/10/14 07:03:43;;;;;;;0.80;0.80;;;;;;;17.09;55.41;96989.44;5084202;28;20052;-61
2023/10/14 07:06:10;;;;;;;0.80;0.80;;;;;;;19.04;55.06;97287.78;5065815;28;20044;-63
2023/10/14 07:08:37;;;;;;;0.80;0.80;;;;;;;18.47;54.83;97186.63;5074623;28;20111;-62
2023/10/14 07:11:06;;;;;;;0.90;0.90;;;;;;;19.31;54.88;97292.28;5071472;28;20146;-61
2023/10/14 07:13:33;;;;;;;0.95;0.95;;;;;;;18.65;53.93;97167.56;5065907;28;20056;-69
2023/10/14 07:16:05;;;;;;;0.90;0.90;;;;;;;19.08;53.02;97215.50;5072931;28;20193;-68
2023/10/14 07:18:36;;;;;;;0.90;0.90;;;;;;;19.78;52.96;97289.59;5066408;28;20063;-68
2023/10/14 07:21:03;;;;;;;1.00;1.00;;;;;;;18.97;52.24;97159.50;5084537;28;20063;-69
2023/10/14 07:23:34;;;;;;;0.90;0.90;;;;;;;19.02;51.77;97119.72;5084763;28;20047;-69
2023/10/14 07:26:12;;;;;;;0.90;0.90;;;;;;;20.24;51.34;97284.06;5085000;28;20545;-70
2023/10/14 07:28:43;;;;;;;0.80;0.80;;;;;;;20.44;51.12;97279.28;5084860;28;20413;-68
2023/10/14 07:31:11;;;;;;;0.85;0.85;;;;;;;20.57;50.76;97271.81;5065779;28;20135;-66
2023/10/14 07:33:40;;;;;;;0.90;0.90;;;;;;;20.78;50.88;97277.06;5064443;28;20059;-67
2023/10/14 07:36:07;;;;;;;0.90;0.90;;;;;;;20.80;49.83;97232.38;5084267;28;20146;-68
2023/10/14 07:38:35;;;;;;;0.93;0.93;;;;;;;21.15;49.01;97240.09;5086978;28;20307;-69
2023/10/14 07:41:03;;;;;;;0.90;0.90;;;;;;;21.43;48.14;97267.69;5099015;28;20062;-68
2023/10/14 07:43:33;;;;;;;0.88;0.88;;;;;;;20.93;47.84;97176.94;5085316;28;20048;-70
2023/10/14 07:46:00;;;;;;;0.90;0.90;;;;;;;21.73;47.42;97264.56;5083935;28;20087;-70
2023/10/14 07:48:27;;;;;;;1.00;1.00;;;;;;;21.29;46.90;97166.53;5084708;28;20503;-68
2023/10/14 07:50:58;;;;;;;0.90;0.90;;;;;;;21.83;46.77;97294.56;5085771;28;20048;-68
2023/10/14 07:53:33;;;;;;;0.98;0.98;;;;;;;21.95;45.87;97248.75;5085187;28;20139;-67
2023/10/14 07:56:06;;;;;;;0.90;0.90;;;;;;;21.71;45.44;97205.00;5085704;28;20584;-68
2023/10/14 07:58:33;;;;;;;0.93;0.93;;;;;;;21.68;45.24;97202.25;5085376;28;20514;-68
2023/10/14 08:01:06;;;;;;;1.00;1.00;;;;;;;21.79;45.91;97240.28;5085194;28;20139;-67
2023/10/14 08:03:36;;;;;;;1.00;1.00;;;;;;;21.95;45.02;97231.84;5075334;28;20522;-66
2023/10/14 08:06:05;;;;;;;0.93;0.93;;;;;;;21.19;45.02;97066.13;5067147;28;20048;-66
2023/10/14 08:08:42;;;;;;;1.00;1.00;;;;;;;22.52;44.61;97217.06;5072498;28;20077;-65
2023/10/14 08:11:12;;;;;;;1.10;1.10;;;;;;;22.69;44.49;97223.47;5084683;28;20048;-65
2023/10/14 08:13:40;;;;;;;1.00;1.00;;;;;;;22.69;43.83;97198.03;5084457;28;20112;-66
2023/10/14 08:16:11;;;;;;;1.00;1.00;;;;;;;21.53;44.62;97029.03;5084461;28;20051;-67
2023/10/14 08:18:42;;;;;;;1.00;1.00;;;;;;;22.93;43.49;97208.66;5068659;28;20048;-68
2023/10/14 08:21:09;;;;;;;1.00;1.00;;;;;;;22.26;44.05;97145.56;5081103;28;20056;-65
2023/10/14 08:23:36;;;;;;;1.10;1.10;;;;;;;22.75;43.63;97180.09;5077389;28;20068;-66
2023/10/14 08:26:03;;;;;;;1.10;1.10;;;;;;;23.24;43.34;97203.28;5083100;28;20078;-66
2023/10/14 08:28:32;;;;;;;1.02;1.02;;;;;;;23.44;42.89;97209.56;5067647;28;20063;-61
2023/10/14 08:30:59;;;;;;;1.13;1.13;;;;;;;23.08;41.83;97136.31;5078400;28;20104;-63
2023/10/14 08:33:28;;;;;;;1.00;1.00;;;;;;;23.72;41.66;97197.34;5071877;28;20467;-63
2023/10/14 08:35:56;;;;;;;1.30;1.30;;;;;;;23.15;41.51;97101.41;5081186;28;20493;-69
2023/10/14 08:38:23;;;;;;;1.20;1.20;;;;;;;23.97;40.89;97199.38;5075131;28;20147;-59
2023/10/14 08:40:54;;;;;;;1.10;1.10;;;;;;;23.27;40.32;97083.66;5074016;28;20586;-65
2023/10/14 08:43:23;;;;;;;1.35;1.35;;;;;;;24.15;40.46;97186.25;5074568;28;20515;-65
2023/10/14 08:45:51;;;;;;;1.40;1.40;;;;;;;24.13;41.22;97185.91;5083328;28;20044;-67
2023/10/14 08:48:26;;;;;;;1.20;1.20;;;;;;;23.24;41.14;97124.13;5084078;28;20123;-57
2023/10/14 08:50:56;;;;;;;1.30;1.30;;;;;;;23.79;40.85;97180.13;5076547;28;20048;-59
2023/10/14 08:53:27;;;;;;;1.20;1.20;;;;;;;23.99;40.03;97183.56;5064799;28;20108;-67
2023/10/14 08:55:57;;;;;;;1.20;1.20;;;;;;;23.46;39.91;97079.81;5083699;28;20063;-69
2023/10/14 08:58:25;;;;;;;1.20;1.20;;;;;;;24.30;39.87;97173.16;5084340;28;20102;-59
2023/10/14 09:00:53;;;;;;;0.95;0.95;;;;;;;24.44;40.23;97183.22;5082398;28;20127;-70
2023/10/14 09:03:20;;;;;;;1.20;1.20;;;;;;;24.36;39.79;97165.66;5075958;28;20434;-73
2023/10/14 09:05:47;;;;;;;1.33;1.33;;;;;;;24.59;39.61;97165.25;5062381;28;20056;-68
2023/10/14 09:08:22;;;;;;;1.38;1.38;;;;;;;24.68;39.33;97159.69;5064638;28;20127;-64
2023/10/14 09:10:52;;;;;;;1.38;1.38;;;;;;;24.79;39.11;97154.41;5073297;28;20447;-62
2023/10/14 09:13:22;;;;;;;1.30;1.30;;;;;;;24.68;38.42;97154.00;5083094;28;20048;-62
2023/10/14 09:15:50;;;;;;;1.25;1.25;;;;;;;24.47;39.41;97149.06;5076126;28;20113;-62
2023/10/14 09:18:19;;;;;;;1.30;1.30;;;;;;;24.86;38.81;97142.81;5083604;28;20138;-63
2023/10/14 09:20:54;;;;;;;1.35;1.35;;;;;;;24.88;38.73;97142.34;5082307;28;20048;-61
2023/10/14 09:23:21;;;;;;;1.40;1.40;;;;;;;25.14;38.34;97136.06;5084128;28;20051;-61
2023/10/14 09:25:58;;;;;;;1.30;1.30;;;;;;;25.28;38.16;97135.50;5084069;28;20510;-61
2023/10/14 09:28:27;;;;;;;1.30;1.30;;;;;;;25.28;37.88;97114.84;5064034;28;20476;-62
2023/10/14 09:30:56;;;;;;;1.40;1.40;;;;;;;25.32;37.96;97119.13;5063909;28;20507;-61
2023/10/14 09:33:32;;;;;;;1.15;1.15;;;;;;;25.54;37.85;97118.28;5064392;28;20072;-62
2023/10/14 09:36:02;;;;;;;1.40;1.40;;;;;;;23.65;37.93;96832.66;5062397;28;20062;-62
2023/10/14 09:38:32;;;;;;;1.02;1.02;;;;;;;25.35;37.61;97076.94;5062563;28;20059;-62
2023/10/14 09:41:04;;;;;;;1.40;1.40;;;;;;;25.77;37.66;97086.50;5063441;28;20538;-62
2023/10/14 09:43:32;;;;;;;1.45;1.45;;;;;;;25.80;37.64;97109.06;5062511;28;20486;-62
2023/10/14 09:46:03;;;;;;;1.30;1.30;;;;;;;25.66;38.18;97091.84;5063738;28;20056;-63
2023/10/14 09:48:34;;;;;;;1.25;1.25;;;;;;;25.62;37.65;97079.84;5063440;28;20477;-63
2023/10/14 09:51:06;;;;;;;1.27;1.27;;;;;;;25.90;37.37;97084.31;5063458;28;20044;-62
2023/10/14 09:53:34;;;;;;;1.30;1.30;;;;;;;24.50;37.35;96841.47;5063421;28;20056;-61
2023/10/14 09:56:12;;;;;;;1.30;1.30;;;;;;;26.03;37.11;97062.31;5064006;28;20144;-62
2023/10/14 09:58:46;;;;;;;1.20;1.20;;;;;;;25.55;38.07;97068.78;5062819;28;20052;-62
2023/10/14 10:01:15;;;;;;;1.30;1.30;;;;;;;25.71;37.83;97034.47;5061763;28;20499;-62
2023/10/14 10:04:05;;;;;;;1.50;1.50;;;;;;;26.00;37.10;97060.41;5062506;28;20055;-62
2023/10/14 10:06:53;;;;;;;1.23;1.23;;;;;;;26.02;37.27;97055.06;5063576;28;20052;-63
2023/10/14 10:09:22;;;;;;;1.50;1.50;;;;;;;26.03;36.95;97042.44;5071763;28;20059;-61
2023/10/14 10:11:53;;;;;;;1.30;1.30;;;;;;;25.09;37.65;96940.22;5082099;28;20056;-62
2023/10/14 10:14:20;;;;;;;1.40;1.40;;;;;;;25.76;37.65;97034.66;5083299;28;20048;-62
2023/10/14 10:16:50;;;;;;;1.48;1.48;;;;;;;25.86;37.38;97021.25;5068410;28;20048;-62
2023/10/14 10:19:17;;;;;;;1.20;1.20;;;;;;;25.89;37.38;97031.66;5067785;28;20052;-64
2023/10/14 10:22:13;;;;;;;1.30;1.30;;;;;;;26.02;37.45;97026.66;5067080;28;20458;-61
2023/10/14 10:24:45;;;;;;;1.48;1.48;;;;;;;25.98;37.74;97031.66;5067641;28;20149;-62
2023/10/14 10:27:14;;;;;;;1.30;1.30;;;;;;;26.00;37.30;96969.56;5076452;28;20044;-62
2023/10/14 10:29:47;;;;;;;1.38;1.38;;;;;;;26.39;37.22;97008.31;5087604;28;20060;-60
2023/10/14 10:32:19;;;;;;;1.33;1.33;;;;;;;26.38;36.42;97001.84;5087829;28;20431;-62
2023/10/14 10:35:24;;;;;;;1.30;1.30;;;;;;;25.02;36.11;96756.28;5086551;28;20051;-64
2023/10/14 10:37:56;;;;;;;1.27;1.27;;;;;;;26.36;36.54;96986.53;5024715;28;20055;-62
2023/10/14 10:40:25;;;;;;;1.58;1.58;;;;;;;26.44;36.37;96988.59;5077381;28;20549;-62
2023/10/14 10:43:09;;;;;;;1.50;1.50;;;;;;;26.81;36.25;96989.28;5087693;28;20447;-62
2023/10/14 10:45:40;;;;;;;1.70;1.70;;;;;;;27.01;35.75;96972.50;5087723;28;20516;-63
2023/10/14 10:48:14;;;;;;;1.77;1.77;;;;;;;27.04;35.28;96980.06;5087577;28;20510;-62
2023/10/14 10:50:42;;;;;;;1.63;1.63;;;;;;;26.63;35.86;96961.72;5087576;28;20574;-61
2023/10/14 10:53:08;;;;;;;1.50;1.50;;;;;;;26.98;35.49;96962.06;5087732;28;20048;-62
2023/10/14 10:55:37;;;;;;;1.70;1.70;;;;;;;27.02;35.48;96973.25;5086530;28;20060;-61
2023/10/14 10:58:06;;;;;;;1.70;1.70;;;;;;;26.92;35.58;96949.75;5087715;28;20478;-61
2023/10/14 11:00:33;;;;;;;1.55;1.55;;;;;;;26.54;35.17;96884.22;5087047;28;20127;-62
2023/10/14 11:03:01;;;;;;;1.60;1.60;;;;;;;27.23;35.16;96947.41;5087587;28;20048;-61
2023/10/14 11:05:31;;;;;;;1.58;1.58;;;;;;;27.43;35.03;96933.38;5087278;28;20117;-62
2023/10/14 11:07:58;;;;;;;1.63;1.63;;;;;;;27.37;34.71;96932.50;5085376;28;20121;-62
2023/10/14 11:10:29;;;;;;;1.67;1.67;;;;;;;26.71;35.27;96928.06;5086441;28;20062;-65
2023/10/14 11:12:57;;;;;;;1.33;1.33;;;;;;;26.89;35.04;96932.91;5071544;28;20066;-61
2023/10/14 11:15:25;;;;;;;1.30;1.30;;;;;;;27.06;35.34;96919.84;5066367;28;20227;-60
2023/10/14 11:17:56;;;;;;;1.67;1.67;;;;;;;26.61;35.63;96923.66;5066741;28;20135;-61
2023/10/14 11:20:32;;;;;;;1.30;1.30;;;;;;;26.94;35.29;96920.84;5065075;28;20056;-62
2023/10/14 11:23:00;;;;;;;1.48;1.48;;;;;;;27.08;34.93;96911.63;5066937;28;20052;-63
2023/10/14 11:25:30;;;;;;;1.67;1.67;;;;;;;27.00;34.93;96911.16;5066300;28;20071;-63
2023/10/14 11:27:57;;;;;;;1.50;1.50;;;;;;;26.86;35.09;96916.81;5080907;28;20074;-62
2023/10/14 11:30:27;;;;;;;1.38;1.38;;;;;;;26.85;35.38;96910.31;5085169;28;20047;-62
2023/10/14 11:33:00;;;;;;;1.60;1.60;;;;;;;26.98;35.12;96902.34;5086856;28;20170;-61
2023/10/14 11:35:31;;;;;;;1.60;1.60;;;;;;;27.41;34.65;96896.09;5086753;28;20449;-60
2023/10/14 11:38:03;;;;;;;1.70;1.70;;;;;;;27.61;34.13;96893.41;5086460;28;20074;-62
2023/10/14 11:40:34;;;;;;;1.70;1.70;;;;;;;27.92;33.93;96878.75;5084808;28;20049;-62
2023/10/14 11:43:03;;;;;;;1.70;1.70;;;;;;;27.81;34.02;96850.03;5086651;28;20048;-61
2023/10/14 11:45:36;;;;;;;1.65;1.65;;;;;;;27.56;34.61;96879.84;5080745;28;20545;-62
2023/10/14 11:48:03;;;;;;;1.70;1.70;;;;;;;27.39;35.21;96840.94;5064285;28;20510;-61
2023/10/14 11:50:30;;;;;;;1.55;1.55;;;;;;;27.94;34.77;96868.47;5064658;28;20048;-61
2023/10/14 11:52:57;;;;;;;2.00;2.00;;;;;;;27.70;34.73;96833.56;5064844;28;20060;-62
2023/10/14 11:55:25;;;;;;;1.83;1.83;;;;;;;27.36;34.72;96854.06;5065540;28;20049;-62
2023/10/14 11:57:55;;;;;;;1.80;1.80;;;;;;;27.42;35.38;96863.53;5065700;28;20887;-62
2023/10/14 12:00:23;;;;;;;1.70;1.70;;;;;;;27.68;34.66;96858.88;5065359;28;20052;-63
2023/10/14 12:02:50;;;;;;;1.70;1.70;;;;;;;27.90;34.85;96853.63;5065822;28;20055;-61
2023/10/14 12:05:17;;;;;;;1.70;1.70;;;;;;;27.12;35.25;96822.00;5065857;28;20141;-62
2023/10/14 12:07:47;;;;;;;1.67;1.67;;;;;;;26.66;35.62;96783.78;5066130;28;20110;-61
2023/10/14 12:10:14;;;;;;;1.80;1.80;;;;;;;26.66;35.10;96772.41;5065779;28;20076;-63
2023/10/14 12:12:40;;;;;;;1.70;1.70;;;;;;;26.85;35.55;96819.34;5064355;28;20052;-62
2023/10/14 12:15:08;;;;;;;1.50;1.50;;;;;;;26.77;35.82;96835.19;5065296;28;20139;-62
2023/10/14 12:17:35;;;;;;;1.52;1.52;;;;;;;26.94;35.64;96799.38;5065338;28;20052;-61
2023/10/14 12:20:05;;;;;;;1.58;1.58;;;;;;;27.46;35.35;96829.97;5065400;28;20146;-62
2023/10/14 12:22:32;;;;;;;1.80;1.80;;;;;;;27.44;34.92;96809.75;5063947;28;20426;-62
2023/10/14 12:24:59;;;;;;;1.63;1.63;;;;;;;27.70;34.57;96822.16;5065315;28;20048;-62